Latest Weather Observations for Kempsey Airport

IDN60801

Issued at 8:32 pm EST Saturday 25 April 2015 (issued every 30 minutes, with the page automatically refreshed every 10 minutes)

About weather observations | Map of weather stations | Latest weather observations for NSW | Other Formats
Station Details ID: 059007 Name: KEMPSEY AIRPORT AWS Lat: -31.07 Lon: 152.77 Height: 13.0 m
Data from the previous 72 hours. | See also: Recent months for locations in New South Wales
Date/Time
EST
Temp
°C
App
Temp
°C
Dew
Point
Rel
Hum
%
Delta-T
°C
Wind Press
QNH
hPa
Press
MSL
hPa
Rain
since 9 am
mm
Dir
 
Spd
km/h
Gust
km/h
Spd
kts
Gust
kts
25/08:30pm 13.5 14.0 11.6 88 1.0 CALM 0 0 0 0 1007.6 1007.5 0.0
25/08:00pm 13.8 13.5 11.5 86 1.2 W 4 7 2 4 1007.5 1007.4 0.0
25/07:30pm 14.5 13.4 11.8 84 1.5 WSW 9 11 5 6 1007.4 1007.3 0.0
25/07:00pm 15.1 13.9 11.7 80 1.8 WSW 9 11 5 6 1007.2 1007.1 0.0
25/06:30pm 16.2 17.0 12.6 79 2.0 CALM 0 6 0 3 1007.1 1007.0 0.0
25/06:00pm 17.6 18.0 11.4 67 3.4 CALM 0 6 0 3 1006.9 1006.8 0.0
25/05:30pm 19.8 18.9 11.3 58 4.7 E 7 9 4 5 1006.6 1006.5 0.0
25/05:00pm 22.0 20.7 11.4 51 5.9 ENE 9 13 5 7 1006.5 1006.4 0.0
25/04:30pm 23.3 20.7 10.7 45 7.0 ENE 15 20 8 11 1006.2 1006.1 0.0
25/04:00pm 24.0 21.4 10.7 43 7.4 ENE 15 24 8 13 1006.1 1006.0 0.0
25/03:30pm 24.6 21.6 10.5 41 7.8 ENE 17 24 9 13 1006.0 1005.9 0.0
25/03:00pm 26.2 24.2 10.0 36 9.0 E 11 15 6 8 1005.8 1005.7 0.0
25/02:30pm 26.6 25.5 9.9 35 9.3 W 6 13 3 7 1005.9 1005.8 0.0
25/02:00pm 26.2 24.9 11.2 39 8.5 E 9 15 5 8 1006.0 1005.9 0.0
25/01:30pm 25.7 24.3 9.5 36 8.9 E 7 13 4 7 1006.3 1006.2 0.0
25/01:00pm 25.4 23.9 9.3 36 8.8 E 7 13 4 7 1006.8 1006.7 0.0
25/12:30pm 25.8 24.4 9.6 36 8.9 ESE 7 15 4 8 1007.3 1007.2 0.0
25/12:00pm 26.0 24.9 10.6 38 8.6 N 7 13 4 7 1007.7 1007.6 0.0
25/11:30am 25.1 23.6 8.6 35 8.9 NE 6 11 3 6 1008.2 1008.1 0.0
25/11:00am 25.4 24.5 11.2 41 8.0 N 7 13 4 7 1008.7 1008.6 0.0
25/10:30am 24.3 23.5 12.9 49 6.6 NW 9 15 5 8 1009.1 1009.0 0.0
25/10:00am 23.1 22.0 13.0 53 5.8 NW 11 17 6 9 1009.3 1009.2 0.0
25/09:30am 21.6 19.5 12.5 56 5.2 NW 15 19 8 10 1009.5 1009.4 0.0
25/09:00am 20.7 19.2 13.2 62 4.3 WNW 13 17 7 9 1009.7 1009.6 0.0
25/08:30am 18.6 17.8 14.1 75 2.6 WNW 11 17 6 9 1009.9 1009.8 0.0
25/08:00am 16.8 16.8 14.1 84 1.5 W 7 11 4 6 1009.7 1009.6 0.0
25/07:30am 14.9 15.3 13.8 93 0.6 W 4 9 2 5 1009.4 1009.3 0.0
25/07:00am 13.0 13.7 12.1 94 0.5 CALM 0 0 0 0 1009.3 1009.2 0.0
25/06:30am 11.5 10.6 10.6 94 0.5 SW 6 7 3 4 1008.8 1008.7 0.0
25/06:00am 11.3 11.1 10.4 94 0.5 W 2 9 1 5 1008.5 1008.4 0.0
25/05:30am 11.5 10.6 10.6 94 0.5 SW 6 7 3 4 1008.3 1008.2 0.0
25/05:00am 12.2 11.2 11.1 93 0.6 WSW 7 9 4 5 1008.2 1008.1 0.0
25/04:30am 12.3 11.5 11.2 93 0.6 SSW 6 7 3 4 1008.1 1008.0 0.0
25/04:00am 12.9 12.3 11.8 93 0.6 WSW 6 11 3 6 1008.0 1007.9 0.0
25/03:30am 13.5 14.3 12.4 93 0.6 CALM 0 0 0 0 1007.8 1007.7 0.0
25/03:00am 13.8 14.6 12.7 93 0.6 CALM 0 0 0 0 1007.8 1007.7 0.0
25/02:30am 13.5 14.3 12.4 93 0.6 CALM 0 0 0 0 1008.0 1007.9 0.0
25/02:00am 13.2 13.9 12.1 93 0.6 CALM 0 0 0 0 1008.1 1008.0 0.0
25/01:30am 13.8 14.6 12.7 93 0.6 CALM 0 0 0 0 1008.2 1008.1 0.0
25/01:00am 14.1 15.0 13.0 93 0.6 CALM 0 0 0 0 1008.4 1008.3 0.0
25/12:30am 14.6 15.7 13.5 93 0.6 CALM 0 0 0 0 1008.4 1008.3 0.0
25/12:00am 14.6 15.7 13.5 93 0.6 CALM 0 0 0 0 1008.4 1008.3 0.0
 
Date/Time
EST
Temp
°C
App
Temp
°C
Dew
Point
Rel
Hum
%
Delta-T
°C
Wind Press
QNH
hPa
Press
MSL
hPa
Rain
since 9 am
mm
Dir
 
Spd
km/h
Gust
km/h
Spd
kts
Gust
kts
24/11:30pm 14.2 14.0 13.1 93 0.6 W 6 9 3 5 1008.5 1008.4 0.0
24/11:00pm 14.3 13.9 13.0 92 0.7 WSW 7 9 4 5 1008.4 1008.3 0.0
24/10:30pm 14.7 15.4 13.4 92 0.7 WSW 2 7 1 4 1008.4 1008.3 0.0
24/10:00pm 15.3 15.2 14.0 92 0.7 W 7 9 4 5 1008.5 1008.4 0.0
24/09:30pm 15.3 16.6 14.0 92 0.7 CALM 0 0 0 0 1008.6 1008.5 0.0
24/09:00pm 15.1 16.2 13.6 91 0.8 CALM 0 0 0 0 1008.5 1008.4 0.0
24/08:30pm 15.0 16.0 13.2 89 1.0 CALM 0 0 0 0 1008.6 1008.5 0.0
24/08:00pm 16.3 17.7 14.5 89 1.0 CALM 0 0 0 0 1008.2 1008.1 0.0
24/07:30pm 16.6 17.8 14.8 89 1.0 NW 2 7 1 4 1008.2 1008.1 0.0
24/07:00pm 16.7 16.7 14.3 86 1.4 WSW 7 11 4 6 1008.0 1007.9 0.0
24/06:30pm 17.2 18.6 14.3 83 1.7 CALM 0 0 0 0 1007.7 1007.6 0.0
24/06:00pm 18.6 19.7 14.5 77 2.4 ENE 2 6 1 3 1007.4 1007.3 0.0
24/05:30pm 19.9 20.0 14.5 71 3.1 ENE 7 11 4 6 1006.9 1006.8 0.0
24/05:00pm 21.4 21.2 14.8 66 3.9 ENE 9 11 5 6 1006.5 1006.4 0.0
24/04:30pm 22.0 21.5 14.9 64 4.2 ENE 11 17 6 9 1006.4 1006.3 0.0
24/04:00pm 23.7 22.3 14.4 56 5.5 ENE 15 20 8 11 1006.3 1006.2 0.0
24/03:30pm 25.7 24.7 12.2 43 7.8 E 9 15 5 8 1006.3 1006.2 0.0
24/03:00pm 25.8 24.7 13.0 45 7.5 E 11 19 6 10 1006.3 1006.2 0.0
24/02:30pm 25.8 25.2 13.6 47 7.2 ESE 9 13 5 7 1006.4 1006.3 0.0
24/02:00pm 25.4 24.4 12.3 44 7.5 ESE 9 15 5 8 1006.5 1006.4 0.0
24/01:30pm 25.2 24.3 11.4 42 7.8 E 7 11 4 6 1006.8 1006.7 0.0
24/01:00pm 24.5 24.0 12.1 46 7.1 ESE 6 11 3 6 1007.1 1007.0 0.0
24/12:30pm 24.7 25.4 14.5 53 6.1 SW 4 9 2 5 1007.4 1007.3 0.0
24/12:00pm 23.5 23.8 13.4 53 5.9 WSW 4 7 2 4 1007.9 1007.8 0.0
24/11:30am 22.4 22.7 14.5 61 4.6 NW 6 11 3 6 1008.6 1008.5 0.0
24/11:00am 20.6 20.2 14.0 66 3.8 NW 9 11 5 6 1009.2 1009.1 0.0
24/10:30am 20.0 19.6 14.1 69 3.4 WNW 9 11 5 6 1009.4 1009.3 0.0
24/10:00am 19.8 20.2 13.7 68 3.5 NW 4 9 2 5 1009.4 1009.3 0.0
24/09:30am 18.2 17.7 13.9 76 2.5 NW 9 15 5 8 1009.6 1009.5 0.0
24/09:00am 16.9 16.8 13.8 82 1.8 WSW 7 11 4 6 1009.4 1009.3 0.0
24/08:30am 16.0 15.9 13.3 84 1.5 W 6 9 3 5 1009.9 1009.8 0.0
24/08:00am 15.5 14.8 13.3 87 1.2 WSW 9 13 5 7 1009.7 1009.6 0.0
24/07:30am 14.5 14.1 12.9 90 0.9 NW 7 13 4 7 1009.7 1009.6 0.0
24/07:00am 13.9 13.9 12.5 91 0.8 WSW 4 9 2 5 1009.7 1009.6 0.0
24/06:30am 13.5 13.0 12.2 92 0.7 W 6 11 3 6 1009.3 1009.2 0.0
24/06:00am 13.3 13.1 11.7 90 0.9 WSW 4 7 2 4 1009.1 1009.0 0.0
24/05:30am 13.8 13.3 12.2 90 0.9 W 6 13 3 7 1009.1 1009.0 0.0
24/05:00am 14.1 13.6 12.7 91 0.8 WNW 7 13 4 7 1009.2 1009.1 0.0
24/04:30am 13.7 13.3 12.4 92 0.7 WSW 6 7 3 4 1009.2 1009.1 0.0
24/04:00am 13.4 12.9 12.1 92 0.7 WSW 6 7 3 4 1009.3 1009.2 0.0
24/03:30am 13.4 12.9 12.0 91 0.8 WSW 6 7 3 4 1009.4 1009.3 0.0
24/03:00am 14.1 13.6 12.5 90 0.9 NW 7 11 4 6 1009.3 1009.2 0.0
24/02:30am 14.3 13.1 12.9 91 0.8 NW 11 13 6 7 1009.5 1009.4 0.0
24/02:00am 13.9 13.0 12.6 92 0.7 NW 9 13 5 7 1009.6 1009.5 0.0
24/01:30am 13.8 14.1 12.2 90 0.9 WSW 2 7 1 4 1009.9 1009.8 0.0
24/01:00am 14.2 14.6 12.6 90 0.9 WNW 2 11 1 6 1010.1 1010.0 0.0
24/12:30am 14.4 13.9 12.6 89 1.0 W 7 9 4 5 1010.6 1010.5 0.0
24/12:00am 15.2 15.8 13.1 87 1.2 WSW 2 9 1 5 1010.5 1010.4 0.0
 
Date/Time
EST
Temp
°C
App
Temp
°C
Dew
Point
Rel
Hum
%
Delta-T
°C
Wind Press
QNH
hPa
Press
MSL
hPa
Rain
since 9 am
mm
Dir
 
Spd
km/h
Gust
km/h
Spd
kts
Gust
kts
23/11:30pm 15.7 15.7 13.5 87 1.2 W 6 7 3 4 1010.9 1010.8 0.0
23/11:00pm 16.3 16.5 14.1 87 1.3 WNW 6 7 3 4 1010.8 1010.7 0.0
23/10:30pm 16.5 17.9 14.3 87 1.3 CALM 0 0 0 0 1011.0 1010.9 0.0
23/10:00pm 16.7 18.1 14.3 86 1.4 CALM 0 0 0 0 1011.1 1011.0 0.0
23/09:30pm 16.9 18.3 14.4 85 1.4 CALM 0 0 0 0 1011.3 1011.2 0.0
23/09:00pm 16.8 17.0 14.3 85 1.4 W 6 7 3 4 1011.4 1011.3 0.0
23/08:30pm 17.0 18.4 14.5 85 1.4 CALM 0 0 0 0 1011.3 1011.2 0.0
23/08:00pm 16.9 17.6 14.5 86 1.4 WNW 4 6 2 3 1011.1 1011.0 0.0
23/07:30pm 17.1 17.3 14.7 86 1.4 WSW 7 7 4 4 1011.0 1010.9 0.0
23/07:00pm 16.7 18.0 14.2 85 1.4 CALM 0 0 0 0 1010.9 1010.8 0.0
23/06:30pm 17.4 18.6 13.7 79 2.1 CALM 0 0 0 0 1010.9 1010.8 0.0
23/06:00pm 18.1 19.3 13.8 76 2.5 CALM 0 0 0 0 1010.5 1010.4 0.0
23/05:30pm 19.3 19.3 13.7 70 3.2 ESE 6 6 3 3 1010.1 1010.0 0.0
23/05:00pm 20.3 20.3 13.7 66 3.8 ENE 6 9 3 5 1009.8 1009.7 0.0
23/04:30pm 20.6 19.6 13.3 63 4.2 ESE 11 13 6 7 1009.6 1009.5 0.0
23/04:00pm 21.3 19.8 13.0 59 4.7 ESE 13 17 7 9 1009.3 1009.2 0.0
23/03:30pm 22.1 21.4 13.2 57 5.1 E 9 17 5 9 1009.3 1009.2 0.0
23/03:00pm 22.3 19.9 12.5 53 5.6 E 17 26 9 14 1009.3 1009.2 0.0
23/02:30pm 23.9 22.7 11.6 46 6.9 ESE 9 11 5 6 1009.2 1009.1 0.0
23/02:00pm 23.3 21.7 11.7 48 6.5 E 11 17 6 9 1009.4 1009.3 0.0
23/01:30pm 22.8 21.4 10.9 47 6.6 SE 9 13 5 7 1009.5 1009.4 0.0
23/01:00pm 24.1 23.4 11.4 45 7.2 E 6 11 3 6 1009.8 1009.7 0.0
23/12:30pm 23.7 22.5 11.7 47 6.8 E 9 13 5 7 1010.4 1010.3 0.0
23/12:00pm 24.0 23.1 11.3 45 7.1 NE 7 9 4 5 1010.9 1010.8 0.0
23/11:30am 23.4 22.4 11.1 46 6.9 SSE 7 11 4 6 1011.5 1011.4 0.0
23/11:00am 22.4 21.7 10.2 46 6.7 E 4 11 2 6 1011.8 1011.7 0.0
23/10:30am 22.5 23.0 12.7 54 5.6 E 2 6 1 3 1012.1 1012.0 0.0
23/10:00am 21.6 22.1 12.7 57 5.1 NNE 2 7 1 4 1012.0 1011.9 0.0
23/09:30am 19.9 19.6 13.4 66 3.7 W 7 11 4 6 1012.2 1012.1 0.0
23/09:00am 18.2 17.5 13.1 72 2.9 WNW 9 13 5 7 1012.5 1012.4 0.0
23/08:30am 16.5 15.7 13.0 80 1.9 WNW 9 13 5 7 1012.5 1012.4 0.0
23/08:00am 14.7 14.1 12.4 86 1.3 W 7 11 4 6 1012.6 1012.5 0.0
23/07:30am 13.0 12.1 11.4 90 0.8 W 7 9 4 5 1012.6 1012.5 0.0
23/07:00am 11.4 11.6 10.5 94 0.5 CALM 0 0 0 0 1012.2 1012.1 0.0
23/06:30am 10.5 10.4 9.6 94 0.5 CALM 0 0 0 0 1012.1 1012.0 0.0
23/06:00am 9.9 8.4 9.0 94 0.4 W 7 7 4 4 1011.7 1011.6 0.0
23/05:30am 9.8 8.4 8.9 94 0.4 NW 6 7 3 4 1011.6 1011.5 0.0
23/05:00am 10.0 9.1 9.1 94 0.4 WSW 4 9 2 5 1011.4 1011.3 0.0
23/04:30am 9.8 9.5 8.7 93 0.5 CALM 0 0 0 0 1011.2 1011.1 0.0
23/04:00am 9.7 9.4 8.6 93 0.5 CALM 0 0 0 0 1011.1 1011.0 0.0
23/03:30am 9.8 9.5 8.7 93 0.5 CALM 0 0 0 0 1011.2 1011.1 0.0
23/03:00am 10.1 9.9 9.0 93 0.5 CALM 0 0 0 0 1010.8 1010.7 0.0
23/02:30am 10.4 10.3 9.3 93 0.5 CALM 0 0 0 0 1010.8 1010.7 0.0
23/02:00am 10.8 10.0 9.7 93 0.6 WSW 4 7 2 4 1011.0 1010.9 0.0
23/01:30am 11.0 9.7 9.9 93 0.6 WSW 7 9 4 5 1011.2 1011.1 0.0
23/01:00am 11.1 9.8 10.0 93 0.6 WSW 7 9 4 5 1011.5 1011.4 0.0
23/12:30am 11.8 12.0 10.7 93 0.6 CALM 0 0 0 0 1011.6 1011.5 0.0
23/12:00am 11.5 11.7 10.4 93 0.6 CALM 0 0 0 0 1011.8 1011.7 0.0
 
Date/Time
EST
Temp
°C
App
Temp
°C
Dew
Point
Rel
Hum
%
Delta-T
°C
Wind Press
QNH
hPa
Press
MSL
hPa
Rain
since 9 am
mm
Dir
 
Spd
km/h
Gust
km/h
Spd
kts
Gust
kts
22/11:30pm 11.9 11.0 10.8 93 0.6 SW 6 6 3 3 1012.0 1011.9 0.0
22/11:00pm 12.2 10.9 11.1 93 0.6 W 9 11 5 6 1012.1 1012.0 0.0
22/10:30pm 12.5 12.9 11.1 91 0.7 CALM 0 0 0 0 1012.3 1012.2 0.0
22/10:00pm 13.2 13.8 11.9 92 0.7 CALM 0 0 0 0 1012.6 1012.5 0.0
22/09:30pm 14.4 15.0 13.1 92 0.7 NNE 2 6 1 3 1012.7 1012.6 0.0
22/09:00pm 14.5 14.2 12.7 89 1.0 N 6 7 3 4 1012.6 1012.5 0.0

Other Formats:

Comma delimited format used in spreadsheet applications
http://www.bom.gov.au/fwo/IDN60801/IDN60801.94785.axf

JavaScript Object Notation format (JSON) in row-major order
http://www.bom.gov.au/fwo/IDN60801/IDN60801.94785.json